TimePST,TemperatureF,Dew PointF,Humidity,Sea Level PressureIn,VisibilityMPH,Wind Direction,Wind SpeedMPH,Gust SpeedMPH,PrecipitationIn,Events,Conditions,WindDirDegrees,DateUTC
12:53 AM,55.9,53.1,90,30.12,10.0,Calm,Calm,-,N/A,,Clear,0,2012-11-05 08:53:00
1:50 AM,51.8,51.8,100,30.14,1.5,North,3.5,-,N/A,,Clear,360,2012-11-05 09:50:00
1:53 AM,51.1,50.0,96,30.12,0.8,North,3.5,-,N/A,,Mist,360,2012-11-05 09:53:00
2:05 AM,51.8,51.8,100,30.13,0.8,Calm,Calm,-,N/A,,Clear,0,2012-11-05 10:05:00
2:07 AM,51.8,51.8,100,30.13,1.0,Calm,Calm,-,N/A,,Mist,0,2012-11-05 10:07:00
2:11 AM,51.8,50.0,94,30.13,2.0,Calm,Calm,-,N/A,,Partly Cloudy,0,2012-11-05 10:11:00
2:22 AM,51.8,50.0,94,30.13,10.0,Calm,Calm,-,N/A,,Clear,0,2012-11-05 10:22:00
2:53 AM,51.1,50.0,96,30.12,10.0,Calm,Calm,-,N/A,,Clear,0,2012-11-05 10:53:00
3:25 AM,51.8,50.0,94,30.13,1.8,Calm,Calm,-,N/A,,Clear,0,2012-11-05 11:25:00
3:31 AM,50.0,48.2,94,30.13,1.0,Calm,Calm,-,N/A,,Mist,0,2012-11-05 11:31:00
3:41 AM,50.0,48.2,94,30.13,0.5,Calm,Calm,-,N/A,Fog,Fog,0,2012-11-05 11:41:00
3:50 AM,48.2,48.2,100,30.13,0.2,Calm,Calm,-,N/A,Fog,Fog,0,2012-11-05 11:50:00
3:53 AM,48.9,48.0,97,30.11,0.2,Calm,Calm,-,N/A,Fog,Fog,0,2012-11-05 11:53:00
4:09 AM,50.0,48.2,94,30.12,0.8,Calm,Calm,-,N/A,,Mist,0,2012-11-05 12:09:00
4:42 AM,50.0,48.2,94,30.13,1.2,Calm,Calm,-,N/A,,Mostly Cloudy,0,2012-11-05 12:42:00
4:53 AM,48.9,48.9,100,30.11,0.5,Calm,Calm,-,N/A,Fog,Fog,0,2012-11-05 12:53:00
5:34 AM,48.2,48.2,100,30.13,1.5,Calm,Calm,-,N/A,,Mostly Cloudy,0,2012-11-05 13:34:00
5:53 AM,48.0,46.9,96,30.12,0.8,Calm,Calm,-,N/A,,Mist,0,2012-11-05 13:53:00
6:11 AM,48.2,46.4,93,30.14,2.0,Calm,Calm,-,N/A,,Mostly Cloudy,0,2012-11-05 14:11:00
6:18 AM,48.2,46.4,93,30.14,4.0,Calm,Calm,-,0.01,,Mostly Cloudy,0,2012-11-05 14:18:00
6:22 AM,48.2,46.4,93,30.14,1.2,WSW,3.5,-,0.01,,Mostly Cloudy,240,2012-11-05 14:22:00
6:30 AM,48.2,48.2,100,30.14,0.2,Calm,Calm,-,0.01,Fog,Fog,0,2012-11-05 14:30:00
6:39 AM,50.0,48.2,94,30.14,0.5,NNW,4.6,-,0.01,Fog,Fog,330,2012-11-05 14:39:00
6:53 AM,48.9,48.0,97,30.12,10.0,Calm,Calm,-,0.01,Fog,Shallow Fog,0,2012-11-05 14:53:00
7:53 AM,51.1,51.1,100,30.13,10.0,Calm,Calm,-,N/A,Fog,Patches of Fog,0,2012-11-05 15:53:00
8:53 AM,55.9,55.0,97,30.13,10.0,Calm,Calm,-,N/A,,Clear,0,2012-11-05 16:53:00
9:53 AM,63.0,55.9,78,30.12,10.0,South,3.5,-,N/A,,Clear,180,2012-11-05 17:53:00
10:53 AM,70.0,55.0,59,30.10,10.0,South,4.6,-,N/A,,Clear,190,2012-11-05 18:53:00
11:53 AM,73.9,55.9,53,30.08,10.0,Calm,Calm,-,N/A,,Clear,0,2012-11-05 19:53:00
12:53 PM,77.0,55.9,48,30.04,10.0,Calm,Calm,-,N/A,,Clear,0,2012-11-05 20:53:00
1:53 PM,81.0,57.9,45,30.02,10.0,Variable,3.5,-,N/A,,Clear,0,2012-11-05 21:53:00
2:53 PM,81.0,57.0,44,30.01,10.0,SSW,4.6,-,N/A,,Clear,200,2012-11-05 22:53:00
3:53 PM,82.0,55.9,41,30.01,10.0,South,4.6,-,N/A,,Clear,170,2012-11-05 23:53:00
4:53 PM,75.0,55.9,51,30.02,10.0,South,4.6,-,N/A,,Clear,170,2012-11-06 00:53:00
5:53 PM,70.0,55.0,59,30.03,10.0,Calm,Calm,-,N/A,,Clear,0,2012-11-06 01:53:00
6:53 PM,63.0,55.9,78,30.03,10.0,Calm,Calm,-,N/A,,Clear,0,2012-11-06 02:53:00
7:53 PM,60.1,55.9,86,30.03,10.0,WNW,3.5,-,N/A,,Clear,300,2012-11-06 03:53:00
8:53 PM,59.0,55.9,90,30.04,10.0,Calm,Calm,-,N/A,,Clear,0,2012-11-06 04:53:00
9:53 PM,55.9,54.0,93,30.05,9.0,Calm,Calm,-,N/A,,Clear,0,2012-11-06 05:53:00
10:53 PM,55.0,54.0,96,30.04,10.0,North,4.6,-,N/A,,Clear,360,2012-11-06 06:53:00
11:53 PM,54.0,53.1,97,30.04,10.0,West,3.5,-,N/A,,Clear,280,2012-11-06 07:53:00